Time;durP1;ratioP1;P1;durP2;ratioP2;P2;SDS_P1;SDS_P2;PMS_P1;PMS_P2;Temp;Humidity;BMP_temperature;BMP_pressure;BME280_temperature;BME280_humidity;BME280_pressure;Samples;Min_cycle;Max_cycle;Signal;HPM_P1;HPM_P2
2024/04/16 00:00:17;;;;;;;;;;;;;;;12.33;100.00;99702.06;106825;1263;61966;-87
2024/04/16 00:02:46;;;;;;;;;;;;;;;12.39;100.00;99693.13;106841;1256;75542;-87
2024/04/16 00:05:15;;;;;;;;;;;;;;;12.39;100.00;99683.38;106085;1263;67262;-86
2024/04/16 00:07:43;;;;;;;;;;;;;;;12.37;100.00;99672.02;106220;1256;71535;-86
2024/04/16 00:10:12;;;;;;;;;;;;;;;12.47;100.00;99649.20;105947;1260;62040;-86
2024/04/16 00:12:40;;;;;;;;;;;;;;;12.50;100.00;99639.45;105904;1256;61946;-86
2024/04/16 00:15:38;;;;;;;;;;;;;;;12.51;100.00;99628.95;105441;1257;74306;-86
2024/04/16 00:18:07;;;;;;;;;;;;;;;12.51;100.00;99593.49;106753;1257;67294;-86
2024/04/16 00:20:35;;;;;;;;;;;;;;;12.45;100.00;99587.69;105712;1256;72693;-82
2024/04/16 00:23:04;;;;;;;;;;;;;;;12.42;100.00;99597.02;105909;1266;62174;-83
2024/04/16 00:25:34;;;;;;;;;;;;;;;12.33;100.00;99577.62;105918;1256;62140;-83
2024/04/16 00:28:02;;;;;;;;;;;;;;;12.31;100.00;99578.99;105980;1257;74517;-86
2024/04/16 00:30:31;;;;;;;;;;;;;;;12.30;100.00;99586.62;106185;1256;70278;-87
2024/04/16 00:33:00;;;;;;;;;;;;;;;12.34;100.00;99583.85;105968;1256;71435;-86
2024/04/16 00:35:29;;;;;;;;;;;;;;;12.32;100.00;99591.02;105956;1260;62089;-87
2024/04/16 00:37:58;;;;;;;;;;;;;;;12.27;100.00;99592.50;106035;1262;62651;-85
2024/04/16 00:40:26;;;;;;;;;;;;;;;12.34;100.00;99599.02;106973;1257;74375;-85
2024/04/16 00:42:56;;;;;;;;;;;;;;;12.36;100.00;99603.07;106395;1261;69776;-87
2024/04/16 00:45:24;;;;;;;;;;;;;;;12.43;100.00;99586.30;106091;1259;71492;-83
2024/04/16 00:47:53;;;;;;;;;;;;;;;12.42;100.00;99584.45;106067;1262;62204;-86
2024/04/16 00:50:22;;;;;;;;;;;;;;;12.51;100.00;99588.24;106025;1256;62166;-85
2024/04/16 00:52:50;;;;;;;;;;;;;;;12.50;100.00;99575.77;106133;1262;75438;-86
2024/04/16 00:55:19;;;;;;;;;;;;;;;12.40;100.00;99558.10;105931;1263;66910;-86
2024/04/16 00:57:50;;;;;;;;;;;;;;;12.44;100.00;99539.46;106255;1261;71477;-82
2024/04/16 01:00:20;;;;;;;;;;;;;;;12.44;100.00;99526.60;105958;1260;61952;-87
2024/04/16 01:02:51;;;;;;;;;;;;;;;12.47;100.00;99526.84;106531;1256;62275;-84
2024/04/16 01:05:22;;;;;;;;;;;;;;;12.48;100.00;99526.59;105939;1258;75480;-88
2024/04/16 01:07:51;;;;;;;;;;;;;;;12.50;100.00;99522.70;106124;1261;67254;-87
2024/04/16 01:10:21;;;;;;;;;;;;;;;12.43;100.00;99522.80;106123;1256;74178;-83
2024/04/16 01:12:52;;;;;;;;;;;;;;;12.40;100.00;99522.98;105921;1256;62020;-83
2024/04/16 01:15:21;;;;;;;;;;;;;;;12.36;100.00;99533.55;105972;1256;62209;-86
2024/04/16 01:17:50;;;;;;;;;;;;;;;12.35;100.00;99544.64;106084;1262;75550;-82
2024/04/16 01:20:18;;;;;;;;;;;;;;;12.28;100.00;99540.70;105950;1256;67605;-87
2024/04/16 01:22:46;;;;;;;;;;;;;;;12.26;100.00;99541.20;107824;1258;73397;-84
2024/04/16 01:25:15;;;;;;;;;;;;;;;12.18;100.00;99542.88;105981;1256;62026;-88
2024/04/16 01:27:44;;;;;;;;;;;;;;;12.12;100.00;99548.73;106017;1263;62117;-83
2024/04/16 01:30:13;;;;;;;;;;;;;;;12.14;100.00;99566.75;105874;1256;77375;-83
2024/04/16 01:32:42;;;;;;;;;;;;;;;12.15;100.00;99577.56;105997;1257;66440;-83
2024/04/16 01:35:10;;;;;;;;;;;;;;;12.20;100.00;99578.70;106065;1257;74166;-82
2024/04/16 01:37:39;;;;;;;;;;;;;;;12.30;100.00;99588.59;105974;1264;62128;-86
2024/04/16 01:40:07;;;;;;;;;;;;;;;12.34;100.00;99591.61;105935;1257;62184;-82
2024/04/16 01:42:36;;;;;;;;;;;;;;;12.30;100.00;99590.35;106092;1256;75467;-84
2024/04/16 01:45:04;;;;;;;;;;;;;;;12.28;100.00;99580.64;107352;1256;67420;-83
2024/04/16 01:47:32;;;;;;;;;;;;;;;12.26;100.00;99578.44;105841;1256;72730;-83
2024/04/16 01:50:01;;;;;;;;;;;;;;;12.21;100.00;99577.63;105843;1257;62072;-82
2024/04/16 01:52:30;;;;;;;;;;;;;;;12.22;100.00;99572.98;106038;1256;62167;-83
2024/04/16 01:54:58;;;;;;;;;;;;;;;12.21;100.00;99570.96;105912;1259;74328;-86
2024/04/16 01:57:26;;;;;;;;;;;;;;;12.21;100.00;99568.16;106133;1256;67747;-87
2024/04/16 01:59:54;;;;;;;;;;;;;;;12.21;100.00;99562.73;105852;1264;72729;-86
2024/04/16 02:02:23;;;;;;;;;;;;;;;12.26;100.00;99557.70;105946;1256;62538;-87
2024/04/16 02:04:52;;;;;;;;;;;;;;;12.27;100.00;99547.52;105751;1267;62596;-83
2024/04/16 02:07:25;;;;;;;;;;;;;;;12.30;100.00;99539.96;107917;1256;74314;-83
2024/04/16 02:09:58;;;;;;;;;;;;;;;12.25;100.00;99538.80;107121;1257;69731;-89
2024/04/16 02:12:27;;;;;;;;;;;;;;;12.20;100.00;99540.09;105781;1266;71278;-83
2024/04/16 02:14:56;;;;;;;;;;;;;;;12.22;100.00;99537.37;105740;1261;62029;-88
2024/04/16 02:17:24;;;;;;;;;;;;;;;12.20;100.00;99521.69;105795;1258;62048;-83
2024/04/16 02:19:53;;;;;;;;;;;;;;;12.13;100.00;99514.79;106078;1259;76696;-85
2024/04/16 02:22:22;;;;;;;;;;;;;;;12.13;100.00;99503.90;106092;1256;66929;-89
2024/04/16 02:24:52;;;;;;;;;;;;;;;12.10;100.00;99484.27;105854;1261;74029;-83
2024/04/16 02:27:21;;;;;;;;;;;;;;;12.01;100.00;99483.50;105950;1259;64784;-87
2024/04/16 02:29:49;;;;;;;;;;;;;;;11.93;100.00;99480.74;107887;1256;62118;-87
2024/04/16 02:32:19;;;;;;;;;;;;;;;11.85;100.00;99471.45;105804;1264;74231;-83
2024/04/16 02:34:49;;;;;;;;;;;;;;;11.80;100.00;99460.48;106013;1256;68598;-88
2024/04/16 02:37:18;;;;;;;;;;;;;;;11.78;100.00;99461.30;106046;1257;72498;-83
2024/04/16 02:39:46;;;;;;;;;;;;;;;11.76;100.00;99469.96;105979;1256;62095;-89
2024/04/16 02:42:14;;;;;;;;;;;;;;;11.76;100.00;99478.42;105927;1256;62779;-83
2024/04/16 02:44:44;;;;;;;;;;;;;;;11.78;100.00;99483.30;106036;1256;75677;-84
2024/04/16 02:47:13;;;;;;;;;;;;;;;11.82;100.00;99494.06;106207;1256;70059;-83
2024/04/16 02:49:41;;;;;;;;;;;;;;;11.80;100.00;99497.23;106130;1256;74875;-87
2024/04/16 02:52:09;;;;;;;;;;;;;;;11.78;100.00;99495.31;106835;1256;61959;-83
2024/04/16 02:54:38;;;;;;;;;;;;;;;11.76;100.00;99501.09;106040;1264;61956;-88
2024/04/16 02:57:06;;;;;;;;;;;;;;;11.81;100.00;99494.08;106197;1262;75669;-83
2024/04/16 02:59:34;;;;;;;;;;;;;;;11.81;100.00;99489.86;105933;1256;68862;-84
2024/04/16 03:02:02;;;;;;;;;;;;;;;11.82;100.00;99492.18;106020;1259;73466;-88
2024/04/16 03:04:31;;;;;;;;;;;;;;;11.87;100.00;99504.64;105989;1262;62051;-84
2024/04/16 03:07:00;;;;;;;;;;;;;;;11.89;100.00;99502.34;105989;1260;62188;-89
2024/04/16 03:09:29;;;;;;;;;;;;;;;11.87;100.00;99495.00;105923;1264;75506;-87
2024/04/16 03:11:58;;;;;;;;;;;;;;;11.90;100.00;99490.02;106015;1256;69410;-88
2024/04/16 03:14:27;;;;;;;;;;;;;;;11.92;100.00;99492.25;105952;1264;75457;-85
2024/04/16 03:16:56;;;;;;;;;;;;;;;11.94;100.00;99506.00;105963;1258;62184;-88
2024/04/16 03:19:24;;;;;;;;;;;;;;;11.93;100.00;99507.23;106071;1256;62177;-87
2024/04/16 03:21:53;;;;;;;;;;;;;;;11.94;100.00;99508.14;108428;1256;75649;-89
2024/04/16 03:24:22;;;;;;;;;;;;;;;11.94;100.00;99517.72;107233;1256;67290;-88
2024/04/16 03:26:51;;;;;;;;;;;;;;;11.95;100.00;99524.59;105832;1259;74747;-83
2024/04/16 03:29:21;;;;;;;;;;;;;;;11.99;100.00;99535.95;105896;1256;62139;-89
2024/04/16 03:31:50;;;;;;;;;;;;;;;12.02;100.00;99547.30;106024;1263;62142;-84
2024/04/16 03:34:18;;;;;;;;;;;;;;;12.05;100.00;99548.34;105975;1256;74730;-83
2024/04/16 03:36:46;;;;;;;;;;;;;;;12.10;100.00;99547.69;105912;1256;69263;-83
2024/04/16 03:39:15;;;;;;;;;;;;;;;12.12;100.00;99551.31;105852;1261;71539;-84
2024/04/16 03:41:43;;;;;;;;;;;;;;;12.14;100.00;99567.69;105955;1257;62126;-89
2024/04/16 03:44:11;;;;;;;;;;;;;;;12.13;100.00;99592.40;106800;1256;62033;-88
2024/04/16 03:46:39;;;;;;;;;;;;;;;12.11;100.00;99613.82;106087;1262;74438;-88
2024/04/16 03:49:08;;;;;;;;;;;;;;;12.09;100.00;99649.45;105940;1259;68558;-82
2024/04/16 03:51:37;;;;;;;;;;;;;;;12.26;100.00;99679.69;105887;1261;71848;-88
2024/04/16 03:54:05;;;;;;;;;;;;;;;12.27;100.00;99659.62;105808;1264;62087;-83
2024/04/16 03:56:34;;;;;;;;;;;;;;;12.23;100.00;99604.33;106008;1256;60081;-84
2024/04/16 03:59:26;;;;;;;;;;;;;;;12.22;100.00;99592.30;105985;1264;77284;-88
2024/04/16 04:01:54;;;;;;;;;;;;;;;12.21;100.00;99605.02;106014;1262;66283;-84
2024/04/16 04:04:24;;;;;;;;;;;;;;;12.22;100.00;99596.14;106100;1256;72500;-83
2024/04/16 04:06:54;;;;;;;;;;;;;;;12.16;100.00;99588.48;105947;1263;62561;-83
2024/04/16 04:09:23;;;;;;;;;;;;;;;12.11;100.00;99576.18;106101;1264;62063;-83
2024/04/16 04:11:51;;;;;;;;;;;;;;;12.08;100.00;99568.98;106123;1257;76680;-83
2024/04/16 04:14:20;;;;;;;;;;;;;;;12.02;100.00;99564.23;105957;1256;68589;-89
2024/04/16 04:16:48;;;;;;;;;;;;;;;11.99;100.00;99561.73;106010;1256;75452;-89
2024/04/16 04:19:17;;;;;;;;;;;;;;;12.04;100.00;99566.48;106767;1256;62099;-85
2024/04/16 04:21:47;;;;;;;;;;;;;;;12.08;100.00;99581.63;106007;1256;62094;-90
2024/04/16 04:24:17;;;;;;;;;;;;;;;12.01;100.00;99597.56;106157;1259;76544;-88
2024/04/16 04:27:00;;;;;;;;;;;;;;;12.01;100.00;99607.89;106066;1261;68505;-83
2024/04/16 04:29:29;;;;;;;;;;;;;;;11.98;100.00;99611.64;106076;1259;71491;-88
2024/04/16 04:31:58;;;;;;;;;;;;;;;11.95;100.00;99605.08;105868;1260;62084;-88
2024/04/16 04:34:27;;;;;;;;;;;;;;;11.94;100.00;99610.54;105861;1256;61948;-88
2024/04/16 04:36:56;;;;;;;;;;;;;;;11.95;100.00;99604.21;106275;1257;74582;-88
2024/04/16 04:39:30;;;;;;;;;;;;;;;11.93;100.00;99593.75;106764;1256;67478;-83
2024/04/16 04:41:59;;;;;;;;;;;;;;;11.94;100.00;99577.73;107527;1262;72626;-86
2024/04/16 04:44:28;;;;;;;;;;;;;;;11.90;100.00;99570.81;106780;1258;62136;-88
2024/04/16 04:46:57;;;;;;;;;;;;;;;11.87;100.00;99551.44;107124;1259;62133;-87
2024/04/16 04:49:25;;;;;;;;;;;;;;;11.92;100.00;99546.14;106481;1256;76621;-87
2024/04/16 04:51:55;;;;;;;;;;;;;;;12.00;100.00;99536.02;108028;1264;70563;-89
2024/04/16 04:54:23;;;;;;;;;;;;;;;12.05;100.00;99537.44;106280;1258;76074;-88
2024/04/16 04:56:51;;;;;;;;;;;;;;;12.10;100.00;99535.80;106319;1259;64783;-88
2024/04/16 04:59:19;;;;;;;;;;;;;;;12.18;100.00;99532.54;108008;1256;62119;-81
2024/04/16 05:01:47;;;;;;;;;;;;;;;12.27;100.00;99529.13;105980;1260;75776;-87
2024/04/16 05:04:16;;;;;;;;;;;;;;;12.37;100.00;99510.67;107221;1256;67998;-82
2024/04/16 05:06:47;;;;;;;;;;;;;;;12.45;100.00;99499.40;106145;1256;73574;-87
2024/04/16 05:09:16;;;;;;;;;;;;;;;12.47;100.00;99490.61;105984;1257;62092;-88
2024/04/16 05:11:47;;;;;;;;;;;;;;;12.53;100.00;99484.13;106097;1258;62188;-81
2024/04/16 05:14:16;;;;;;;;;;;;;;;12.58;100.00;99490.76;105929;1256;74086;-88
2024/04/16 05:16:45;;;;;;;;;;;;;;;12.62;100.00;99488.90;105890;1262;70625;-81
2024/04/16 05:19:13;;;;;;;;;;;;;;;12.65;100.00;99486.30;106001;1266;74891;-81
2024/04/16 05:21:41;;;;;;;;;;;;;;;12.71;100.00;99477.04;105862;1256;62059;-81
2024/04/16 05:24:11;;;;;;;;;;;;;;;12.76;100.00;99467.95;105847;1262;62055;-81
2024/04/16 05:26:39;;;;;;;;;;;;;;;12.84;100.00;99469.92;108011;1256;76374;-81
2024/04/16 05:29:07;;;;;;;;;;;;;;;12.90;100.00;99473.13;106195;1262;69872;-82
2024/04/16 05:31:36;;;;;;;;;;;;;;;12.95;100.00;99469.17;106022;1256;74895;-88
2024/04/16 05:34:04;;;;;;;;;;;;;;;12.99;100.00;99466.14;105777;1260;62149;-88
2024/04/16 05:36:32;;;;;;;;;;;;;;;13.05;100.00;99477.20;106044;1257;62029;-82
2024/04/16 05:39:00;;;;;;;;;;;;;;;13.15;100.00;99476.54;106038;1258;77472;-83
2024/04/16 05:41:29;;;;;;;;;;;;;;;13.22;100.00;99469.67;105959;1256;71355;-86
2024/04/16 05:43:57;;;;;;;;;;;;;;;13.29;100.00;99468.23;106469;1259;73898;-87
2024/04/16 05:46:26;;;;;;;;;;;;;;;13.38;100.00;99469.95;106036;1258;62382;-82
2024/04/16 05:48:54;;;;;;;;;;;;;;;13.52;100.00;99480.08;105916;1262;62003;-82
2024/04/16 05:51:22;;;;;;;;;;;;;;;13.67;100.00;99491.27;106058;1260;75985;-83
2024/04/16 05:53:51;;;;;;;;;;;;;;;13.78;100.00;99491.30;105953;1262;68405;-82
2024/04/16 05:56:19;;;;;;;;;;;;;;;13.85;100.00;99496.09;105841;1264;72203;-82
2024/04/16 05:58:47;;;;;;;;;;;;;;;13.88;100.00;99503.98;106118;1257;62042;-87
2024/04/16 06:01:15;;;;;;;;;;;;;;;13.94;100.00;99509.73;106079;1256;62132;-87
2024/04/16 06:03:44;;;;;;;;;;;;;;;13.99;100.00;99510.93;106675;1256;74637;-83
2024/04/16 06:06:14;;;;;;;;;;;;;;;14.01;100.00;99497.35;105926;1257;68778;-83
2024/04/16 06:08:44;;;;;;;;;;;;;;;13.99;100.00;99481.48;106045;1264;75071;-87
2024/04/16 06:11:13;;;;;;;;;;;;;;;14.02;100.00;99472.82;105938;1256;62624;-84
2024/04/16 06:13:41;;;;;;;;;;;;;;;14.08;100.00;99473.94;106042;1263;61956;-83
2024/04/16 06:16:15;;;;;;;;;;;;;;;14.18;100.00;99475.23;106077;1256;78176;-84
2024/04/16 06:18:45;;;;;;;;;;;;;;;14.23;100.00;99480.30;106071;1256;67714;-84
2024/04/16 06:21:16;;;;;;;;;;;;;;;14.33;100.00;99481.44;106763;1266;74953;-84
2024/04/16 06:23:46;;;;;;;;;;;;;;;14.41;100.00;99483.74;106035;1257;62162;-88
2024/04/16 06:26:14;;;;;;;;;;;;;;;14.45;100.00;99478.65;106133;1262;62110;-87
2024/04/16 06:28:42;;;;;;;;;;;;;;;14.49;100.00;99480.48;106059;1256;76583;-88
2024/04/16 06:31:09;;;;;;;;;;;;;;;14.52;100.00;99478.48;106128;1256;71069;-88
2024/04/16 06:33:42;;;;;;;;;;;;;;;14.56;100.00;99481.36;106109;1263;74966;-87
2024/04/16 06:36:10;;;;;;;;;;;;;;;14.64;100.00;99480.48;106749;1259;62184;-87
2024/04/16 06:38:39;;;;;;;;;;;;;;;14.83;100.00;99477.55;105857;1258;62219;-83
2024/04/16 06:41:09;;;;;;;;;;;;;;;15.12;100.00;99472.98;106122;1264;77924;-83
2024/04/16 06:43:38;;;;;;;;;;;;;;;15.17;100.00;99471.91;106112;1257;67782;-82
2024/04/16 06:46:07;;;;;;;;;;;;;;;15.46;100.00;99478.75;106062;1256;74843;-83
2024/04/16 06:48:35;;;;;;;;;;;;;;;15.45;100.00;99487.59;106422;1264;62137;-84
2024/04/16 06:51:05;;;;;;;;;;;;;;;15.48;100.00;99488.02;106128;1256;62134;-83
2024/04/16 06:53:33;;;;;;;;;;;;;;;15.51;100.00;99484.38;105937;1256;74713;-82
2024/04/16 06:56:02;;;;;;;;;;;;;;;15.54;100.00;99487.39;106418;1256;71617;-82
2024/04/16 06:58:29;;;;;;;;;;;;;;;15.61;100.00;99494.63;106277;1260;74937;-83
2024/04/16 07:00:58;;;;;;;;;;;;;;;15.63;100.00;99493.61;106201;1256;62137;-83
2024/04/16 07:03:28;;;;;;;;;;;;;;;15.67;100.00;99494.41;106067;1256;62042;-83
2024/04/16 07:05:57;;;;;;;;;;;;;;;15.73;100.00;99493.70;106035;1263;75471;-83
2024/04/16 07:08:26;;;;;;;;;;;;;;;15.75;100.00;99502.13;106869;1263;69123;-83
2024/04/16 07:10:55;;;;;;;;;;;;;;;15.78;100.00;99506.08;105928;1257;74815;-87
2024/04/16 07:13:23;;;;;;;;;;;;;;;15.80;100.00;99516.86;106262;1260;62001;-85
2024/04/16 07:15:52;;;;;;;;;;;;;;;15.82;100.00;99519.71;106112;1256;60105;-84
2024/04/16 07:18:22;;;;;;;;;;;;;;;15.83;100.00;99516.98;105847;1257;74071;-85
2024/04/16 07:20:52;;;;;;;;;;;;;;;15.83;100.00;99521.17;105804;1265;69529;-86
2024/04/16 07:23:21;;;;;;;;;;;;;;;15.84;100.00;99526.54;106115;1263;71736;-82
2024/04/16 07:25:49;;;;;;;;;;;;;;;15.89;100.00;99528.86;105991;1264;62214;-84
2024/04/16 07:28:19;;;;;;;;;;;;;;;16.00;100.00;99540.19;105967;1258;61926;-85
2024/04/16 07:30:47;;;;;;;;;;;;;;;16.13;100.00;99547.91;106135;1257;75255;-86
2024/04/16 07:33:30;;;;;;;;;;;;;;;16.26;100.00;99546.38;106163;1256;69459;-85
2024/04/16 07:35:59;;;;;;;;;;;;;;;16.27;100.00;99543.77;106061;1265;74527;-87
2024/04/16 07:38:27;;;;;;;;;;;;;;;16.33;100.00;99536.95;106043;1258;62413;-84
2024/04/16 07:40:56;;;;;;;;;;;;;;;16.32;100.00;99531.33;107066;1259;62452;-84
2024/04/16 07:43:29;;;;;;;;;;;;;;;16.35;100.00;99528.70;106362;1264;74765;-83
2024/04/16 07:45:57;;;;;;;;;;;;;;;16.46;100.00;99530.39;106118;1257;66847;-86
2024/04/16 07:48:25;;;;;;;;;;;;;;;16.59;100.00;99523.27;107224;1259;71282;-85
2024/04/16 07:50:53;;;;;;;;;;;;;;;16.70;100.00;99513.50;108615;1260;61092;-83
2024/04/16 07:53:21;;;;;;;;;;;;;;;16.84;100.00;99508.20;108437;1258;61408;-84
2024/04/16 07:55:50;;;;;;;;;;;;;;;16.96;100.00;99506.64;107035;1256;75927;-87
2024/04/16 07:58:19;;;;;;;;;;;;;;;16.94;100.00;99505.64;107367;1261;67688;-86
2024/04/16 08:00:49;;;;;;;;;;;;;;;17.18;100.00;99504.33;107121;1256;74969;-88
2024/04/16 08:03:17;;;;;;;;;;;;;;;17.05;100.00;99501.63;107450;1260;62039;-87
2024/04/16 08:05:46;;;;;;;;;;;;;;;17.01;100.00;99493.95;106222;1263;62088;-87
2024/04/16 08:08:20;;;;;;;;;;;;;;;17.06;100.00;99488.59;106101;1264;75601;-88
2024/04/16 08:11:13;;;;;;;;;;;;;;;17.13;100.00;99484.54;106049;1262;69023;-88
2024/04/16 08:13:42;;;;;;;;;;;;;;;17.17;100.00;99490.05;106234;1260;74585;-85
2024/04/16 08:16:12;;;;;;;;;;;;;;;17.25;100.00;99492.25;106222;1259;62125;-86
2024/04/16 08:18:41;;;;;;;;;;;;;;;17.28;100.00;99491.78;106050;1256;62050;-86
2024/04/16 08:21:08;;;;;;;;;;;;;;;17.34;100.00;99498.75;106371;1257;73752;-87
2024/04/16 08:23:38;;;;;;;;;;;;;;;17.38;100.00;99507.55;106065;1263;70015;-87
2024/04/16 08:26:07;;;;;;;;;;;;;;;17.42;100.00;99508.36;106229;1256;74891;-89
2024/04/16 08:28:39;;;;;;;;;;;;;;;17.41;100.00;99501.80;106226;1258;62845;-85
2024/04/16 08:31:16;;;;;;;;;;;;;;;17.40;100.00;99495.79;105842;1256;61903;-87
2024/04/16 08:33:45;;;;;;;;;;;;;;;17.33;100.00;99494.21;106097;1258;77413;-88
2024/04/16 08:36:15;;;;;;;;;;;;;;;17.36;100.00;99492.02;106151;1262;70916;-87
2024/04/16 08:38:43;;;;;;;;;;;;;;;17.48;100.00;99494.69;107307;1257;72838;-87
2024/04/16 08:41:11;;;;;;;;;;;;;;;17.62;100.00;99494.77;107094;1257;62127;-88
2024/04/16 08:43:40;;;;;;;;;;;;;;;17.67;100.00;99495.64;106122;1257;62023;-88
2024/04/16 08:46:13;;;;;;;;;;;;;;;17.83;100.00;99499.67;106242;1256;76319;-88
2024/04/16 08:48:45;;;;;;;;;;;;;;;17.95;100.00;99505.46;106067;1262;69099;-88
2024/04/16 08:51:16;;;;;;;;;;;;;;;17.85;100.00;99506.92;106010;1259;72543;-89
2024/04/16 08:53:50;;;;;;;;;;;;;;;17.82;100.00;99502.33;106098;1263;62131;-86
2024/04/16 08:56:21;;;;;;;;;;;;;;;17.85;100.00;99505.80;106167;1257;62149;-85
2024/04/16 08:58:51;;;;;;;;;;;;;;;17.90;100.00;99507.60;106679;1259;75570;-86
2024/04/16 09:01:23;;;;;;;;;;;;;;;17.98;100.00;99502.00;106314;1256;68827;-89
2024/04/16 09:03:51;;;;;;;;;;;;;;;18.18;100.00;99507.66;106575;1262;72674;-89
2024/04/16 09:06:20;;;;;;;;;;;;;;;18.24;100.00;99506.56;107832;1258;62140;-90
2024/04/16 09:08:54;;;;;;;;;;;;;;;18.26;100.00;99509.08;106232;1256;62115;-88
2024/04/16 09:11:37;;;;;;;;;;;;;;;18.34;100.00;99508.80;106053;1256;77430;-89
2024/04/16 09:14:09;;;;;;;;;;;;;;;18.25;100.00;99513.09;106055;1257;67493;-90
2024/04/16 09:16:37;;;;;;;;;;;;;;;18.06;100.00;99509.63;106069;1256;74271;-89
2024/04/16 09:19:07;;;;;;;;;;;;;;;17.94;100.00;99512.14;106089;1263;62069;-85
2024/04/16 09:21:35;;;;;;;;;;;;;;;17.81;100.00;99517.92;106249;1255;63226;-89
2024/04/16 09:24:05;;;;;;;;;;;;;;;17.81;100.00;99521.79;106307;1256;76610;-90
2024/04/16 09:26:36;;;;;;;;;;;;;;;17.83;100.00;99518.63;106195;1257;68554;-87
2024/04/16 09:29:05;;;;;;;;;;;;;;;17.98;100.00;99521.09;106129;1262;75062;-85
2024/04/16 09:31:36;;;;;;;;;;;;;;;18.24;100.00;99521.58;106319;1256;62240;-85
2024/04/16 09:34:06;;;;;;;;;;;;;;;18.03;100.00;99528.13;106326;1256;62117;-87
2024/04/16 09:36:34;;;;;;;;;;;;;;;17.83;100.00;99527.60;106727;1261;74116;-84
2024/04/16 09:39:03;;;;;;;;;;;;;;;17.69;100.00;99526.30;106058;1262;67624;-84
2024/04/16 09:41:32;;;;;;;;;;;;;;;17.59;100.00;99527.53;106207;1257;72733;-87
2024/04/16 09:44:01;;;;;;;;;;;;;;;17.57;100.00;99527.86;106163;1257;60117;-84
2024/04/16 09:46:30;;;;;;;;;;;;;;;17.52;100.00;99519.33;106070;1259;62126;-87
2024/04/16 09:49:00;;;;;;;;;;;;;;;17.43;100.00;99522.69;106081;1256;78039;-84
2024/04/16 09:51:28;;;;;;;;;;;;;;;17.34;100.00;99523.30;106035;1263;67398;-89
2024/04/16 09:53:56;;;;;;;;;;;;;;;17.27;100.00;99525.03;106142;1259;74447;-90
2024/04/16 09:56:25;;;;;;;;;;;;;;;17.18;100.00;99524.92;106757;1259;61987;-91
2024/04/16 09:58:55;;;;;;;;;;;;;;;17.13;100.00;99524.05;105888;1266;61939;-85
2024/04/16 10:01:23;;;;;;;;;;;;;;;17.09;100.00;99526.21;106044;1263;78141;-88
2024/04/16 10:03:53;;;;;;;;;;;;;;;17.09;100.00;99521.48;106150;1261;67380;-85
2024/04/16 10:06:21;;;;;;;;;;;;;;;17.19;100.00;99518.96;106002;1262;70929;-85
2024/04/16 10:08:51;;;;;;;;;;;;;;;17.24;100.00;99516.89;106121;1257;61930;-88
2024/04/16 10:11:21;;;;;;;;;;;;;;;17.23;100.00;99511.09;105972;1258;62071;-92
2024/04/16 10:14:00;;;;;;;;;;;;;;;17.19;100.00;99511.55;106378;1260;74140;-89
2024/04/16 10:16:34;;;;;;;;;;;;;;;17.23;100.00;99506.54;106243;1260;69985;-89
2024/04/16 10:19:05;;;;;;;;;;;;;;;17.26;100.00;99512.95;106015;1258;73769;-88
2024/04/16 10:21:39;;;;;;;;;;;;;;;17.33;100.00;99508.02;106034;1258;60794;-84
2024/04/16 10:24:08;;;;;;;;;;;;;;;17.55;100.00;99510.19;106082;1262;61955;-85
2024/04/16 10:26:39;;;;;;;;;;;;;;;17.89;100.00;99505.99;106195;1263;75591;-90
2024/04/16 10:29:18;;;;;;;;;;;;;;;17.88;100.00;99510.64;106136;1262;70223;-89
2024/04/16 10:31:53;;;;;;;;;;;;;;;17.61;100.00;99506.67;105961;1259;71383;-85
2024/04/16 10:34:22;;;;;;;;;;;;;;;17.50;100.00;99502.47;106086;1263;64230;-85
2024/04/16 10:36:53;;;;;;;;;;;;;;;17.62;100.00;99498.02;106073;1260;62250;-84
2024/04/16 10:39:29;;;;;;;;;;;;;;;17.70;100.00;99497.14;105758;1267;76535;-85
2024/04/16 10:41:59;;;;;;;;;;;;;;;17.80;100.00;99502.48;105722;1265;315882;-84
2024/04/16 10:44:27;;;;;;;;;;;;;;;17.83;100.00;99499.52;106538;1260;71267;-87
2024/04/16 10:46:56;;;;;;;;;;;;;;;17.83;100.00;99497.30;105900;1264;62129;-87
2024/04/16 10:49:26;;;;;;;;;;;;;;;17.84;100.00;99498.67;105833;1262;62258;-84
2024/04/16 10:51:55;;;;;;;;;;;;;;;17.76;100.00;99497.15;106016;1262;74081;-84
2024/04/16 10:54:24;;;;;;;;;;;;;;;17.77;100.00;99491.44;106018;1262;70755;-84
2024/04/16 10:56:52;;;;;;;;;;;;;;;17.88;100.00;99494.06;106026;1257;72612;-84
2024/04/16 10:59:20;;;;;;;;;;;;;;;18.04;100.00;99499.71;106388;1257;61956;-83
2024/04/16 11:01:48;;;;;;;;;;;;;;;18.09;100.00;99493.70;106152;1258;62032;-85
2024/04/16 11:04:17;;;;;;;;;;;;;;;18.11;100.00;99481.48;106158;1257;77988;-84
2024/04/16 11:06:47;;;;;;;;;;;;;;;18.14;100.00;99480.63;105936;1257;67541;-83
2024/04/16 11:09:18;;;;;;;;;;;;;;;18.17;100.00;99476.27;105993;1262;74310;-88
2024/04/16 11:11:48;;;;;;;;;;;;;;;18.28;100.00;99470.65;106099;1262;61961;-88
2024/04/16 11:14:17;;;;;;;;;;;;;;;18.36;100.00;99463.84;106031;1262;61961;-83
2024/04/16 11:16:45;;;;;;;;;;;;;;;18.38;100.00;99461.83;107048;1258;75519;-83
2024/04/16 11:19:14;;;;;;;;;;;;;;;18.40;100.00;99462.37;105912;1265;71217;-85
2024/04/16 11:21:45;;;;;;;;;;;;;;;18.46;100.00;99462.83;106054;1265;75252;-85
2024/04/16 11:24:15;;;;;;;;;;;;;;;18.59;100.00;99456.73;106087;1263;62191;-88
2024/04/16 11:26:43;;;;;;;;;;;;;;;18.84;100.00;99452.72;106047;1257;61991;-88
2024/04/16 11:29:17;;;;;;;;;;;;;;;19.14;100.00;99451.19;106333;1261;77507;-87
2024/04/16 11:31:46;;;;;;;;;;;;;;;19.47;100.00;99451.27;106147;1264;69999;-86
2024/04/16 11:34:14;;;;;;;;;;;;;;;19.60;100.00;99447.90;106150;1260;75777;-85
2024/04/16 11:36:51;;;;;;;;;;;;;;;19.69;100.00;99448.75;106015;1262;62372;-87
2024/04/16 11:39:46;;;;;;;;;;;;;;;19.81;100.00;99451.20;106268;1261;62096;-79
2024/04/16 11:42:15;;;;;;;;;;;;;;;19.91;100.00;99451.02;106019;1264;77927;-81
2024/04/16 11:44:46;;;;;;;;;;;;;;;20.09;100.00;99451.51;107084;1257;69186;-87
2024/04/16 11:47:14;;;;;;;;;;;;;;;20.26;100.00;99446.10;106264;1271;70650;-83
2024/04/16 11:49:42;;;;;;;;;;;;;;;20.37;100.00;99444.55;106178;1263;62156;-84
2024/04/16 11:52:12;;;;;;;;;;;;;;;20.50;100.00;99438.61;106011;1257;62116;-83
2024/04/16 11:54:41;;;;;;;;;;;;;;;20.65;100.00;99439.19;105929;1258;77810;-84
2024/04/16 11:57:09;;;;;;;;;;;;;;;20.76;100.00;99434.52;106454;1256;71455;-83
2024/04/16 11:59:38;;;;;;;;;;;;;;;20.84;100.00;99431.31;106214;1263;72898;-84
2024/04/16 12:02:08;;;;;;;;;;;;;;;21.00;100.00;99426.23;106126;1261;62075;-87
2024/04/16 12:04:40;;;;;;;;;;;;;;;21.11;100.00;99424.82;106055;1263;61952;-87
2024/04/16 12:07:08;;;;;;;;;;;;;;;21.21;100.00;99427.17;106204;1260;78011;-86
2024/04/16 12:09:36;;;;;;;;;;;;;;;21.37;100.00;99418.19;106031;1262;71375;-87
2024/04/16 12:12:05;;;;;;;;;;;;;;;21.45;100.00;99417.52;105966;1260;75106;-87
2024/04/16 12:14:33;;;;;;;;;;;;;;;21.54;100.00;99418.02;106582;1256;62172;-87
2024/04/16 12:17:02;;;;;;;;;;;;;;;21.61;100.00;99411.05;105948;1258;62267;-87
2024/04/16 12:19:32;;;;;;;;;;;;;;;21.73;100.00;99404.11;105948;1264;75201;-88
2024/04/16 12:22:01;;;;;;;;;;;;;;;21.74;100.00;99402.13;106028;1256;68722;-86
2024/04/16 12:24:29;;;;;;;;;;;;;;;21.85;100.00;99399.95;105937;1256;76259;-86
2024/04/16 12:26:57;;;;;;;;;;;;;;;21.87;100.00;99398.08;107058;1258;62066;-87
2024/04/16 12:29:25;;;;;;;;;;;;;;;21.81;100.00;99399.04;106027;1261;62037;-83
2024/04/16 12:31:54;;;;;;;;;;;;;;;21.70;100.00;99393.04;105937;1257;77655;-82
2024/04/16 12:34:23;;;;;;;;;;;;;;;21.57;100.00;99396.55;105960;1262;68067;-84
2024/04/16 12:36:51;;;;;;;;;;;;;;;21.30;100.00;99396.27;106098;1263;73748;-84